This is the latest recevied weather packets stored in our database for station/object EA1HEH-13. If no packets are shown the sender has not sent any weather packets the latest 1 day(s).
| Time | Temp. | Humidity | Pressure | Rain* | Wind** | Luminosity | Snow |
|---|---|---|---|---|---|---|---|
| 1778079345 | 18.33° C | 22% | 932 hPa | - | - | - | - |
| 1778078745 | 18.33° C | 22% | 932.1 hPa | - | - | - | - |
| 1778078145 | 18.33° C | 22% | 932.2 hPa | - | - | - | - |
| 1778077545 | 17.78° C | 22% | 932.3 hPa | - | - | - | - |
| 1778076945 | 17.78° C | 22% | 932.5 hPa | - | - | - | - |
| 1778076345 | 17.78° C | 22% | 932.5 hPa | - | - | - | - |
| 1778075745 | 17.78° C | 22% | 932.6 hPa | - | - | - | - |
| 1778075145 | 17.78° C | 23% | 932.7 hPa | - | - | - | - |
| 1778074545 | 17.22° C | 23% | 932.9 hPa | - | - | - | - |
| 1778073945 | 17.22° C | 23% | 932.9 hPa | - | - | - | - |
| 1778073345 | 17.22° C | 23% | 933 hPa | - | - | - | - |
| 1778069145 | 16.11° C | 23% | 933.4 hPa | - | - | - | - |
| 1778063744 | 15° C | 25% | 933.9 hPa | - | - | - | - |
| 1778057744 | 13.33° C | 32% | 933.9 hPa | - | - | - | - |
| 1778054744 | 12.78° C | 32% | 934 hPa | - | - | - | - |
| 1778052944 | 12.78° C | 31% | 934.1 hPa | - | - | - | - |
| 1778051144 | 12.78° C | 31% | 934.2 hPa | - | - | - | - |
| 1778049944 | 12.78° C | 31% | 934 hPa | - | - | - | - |
| 1778048744 | 12.78° C | 30% | 933.9 hPa | - | - | - | - |
| 1778046344 | 12.78° C | 29% | 933.9 hPa | - | - | - | - |
| 1778045144 | 12.78° C | 29% | 933.8 hPa | - | - | - | - |
| 1778043344 | 13.33° C | 29% | 933.6 hPa | - | - | - | - |
| 1778042144 | 13.33° C | 29% | 933.7 hPa | - | - | - | - |
| 1778041544 | 13.33° C | 29% | 933.7 hPa | - | - | - | - |
| 1778040944 | 13.33° C | 29% | 933.7 hPa | - | - | - | - |
* Rain since midnight (hover to see other rain measurements)
** Current wind speed in m/s (hover to see current wind gust speed)